sensor_id;sensor_type;location;lat;lon;timestamp;temperature;humidity
46608;DHT22;32330;51.936;7.184;2023-09-30T03:48:28;11.50;99.90
46608;DHT22;32330;51.936;7.184;2023-09-30T03:50:55;11.50;99.90
46608;DHT22;32330;51.936;7.184;2023-09-30T03:53:22;11.50;99.90
46608;DHT22;32330;51.936;7.184;2023-09-30T03:55:52;11.50;99.90
46608;DHT22;32330;51.936;7.184;2023-09-30T03:58:19;11.50;99.90
46608;DHT22;32330;51.936;7.184;2023-09-30T04:00:47;11.60;99.90
46608;DHT22;32330;51.936;7.184;2023-09-30T04:03:15;11.50;99.90
46608;DHT22;32330;51.936;7.184;2023-09-30T04:05:44;11.50;99.90
46608;DHT22;32330;51.936;7.184;2023-09-30T04:08:11;11.50;99.90
46608;DHT22;32330;51.936;7.184;2023-09-30T04:10:40;11.50;99.90
46608;DHT22;32330;51.936;7.184;2023-09-30T04:13:07;11.50;99.90
46608;DHT22;32330;51.936;7.184;2023-09-30T04:15:34;11.50;99.90
46608;DHT22;32330;51.936;7.184;2023-09-30T04:18:03;11.40;99.90
46608;DHT22;32330;51.936;7.184;2023-09-30T04:24:50;11.50;99.90
46608;DHT22;32330;51.936;7.184;2023-09-30T04:30:36;11.40;99.90
46608;DHT22;32330;51.936;7.184;2023-09-30T04:33:03;11.40;99.90
46608;DHT22;32330;51.936;7.184;2023-09-30T04:35:32;11.40;99.90
46608;DHT22;32330;51.936;7.184;2023-09-30T04:38:01;11.40;99.90
46608;DHT22;32330;51.936;7.184;2023-09-30T04:40:31;11.40;99.90
46608;DHT22;32330;51.936;7.184;2023-09-30T04:42:59;11.30;99.90
46608;DHT22;32330;51.936;7.184;2023-09-30T04:45:26;11.40;99.90
46608;DHT22;32330;51.936;7.184;2023-09-30T04:47:56;11.30;99.90
46608;DHT22;32330;51.936;7.184;2023-09-30T04:50:23;11.30;99.90
46608;DHT22;32330;51.936;7.184;2023-09-30T04:53:00;11.30;99.90
46608;DHT22;32330;51.936;7.184;2023-09-30T04:55:28;11.30;99.90
46608;DHT22;32330;51.936;7.184;2023-09-30T04:57:58;11.30;99.90
46608;DHT22;32330;51.936;7.184;2023-09-30T05:00:30;11.30;99.90
46608;DHT22;32330;51.936;7.184;2023-09-30T05:02:57;11.30;99.90
46608;DHT22;32330;51.936;7.184;2023-09-30T05:05:25;11.20;99.90
46608;DHT22;32330;51.936;7.184;2023-09-30T05:07:52;11.30;99.90
46608;DHT22;32330;51.936;7.184;2023-09-30T05:10:19;11.20;99.90
46608;DHT22;32330;51.936;7.184;2023-09-30T05:12:46;11.20;99.90
46608;DHT22;32330;51.936;7.184;2023-09-30T05:15:28;11.20;99.90
46608;DHT22;32330;51.936;7.184;2023-09-30T05:18:09;11.20;99.90
46608;DHT22;32330;51.936;7.184;2023-09-30T05:20:36;11.20;99.90
46608;DHT22;32330;51.936;7.184;2023-09-30T05:23:08;11.20;99.90
46608;DHT22;32330;51.936;7.184;2023-09-30T05:25:43;11.20;99.90
46608;DHT22;32330;51.936;7.184;2023-09-30T05:28:29;11.20;99.90
46608;DHT22;32330;51.936;7.184;2023-09-30T05:30:58;11.20;99.90
46608;DHT22;32330;51.936;7.184;2023-09-30T05:33:28;11.20;99.90
46608;DHT22;32330;51.936;7.184;2023-09-30T05:36:03;11.20;99.90
46608;DHT22;32330;51.936;7.184;2023-09-30T05:38:30;11.20;99.90
46608;DHT22;32330;51.936;7.184;2023-09-30T05:41:22;11.20;99.90
46608;DHT22;32330;51.936;7.184;2023-09-30T05:43:50;11.20;99.90
46608;DHT22;32330;51.936;7.184;2023-09-30T05:46:18;11.20;99.90
46608;DHT22;32330;51.936;7.184;2023-09-30T05:48:45;11.20;99.90
46608;DHT22;32330;51.936;7.184;2023-09-30T05:51:15;11.20;99.90
46608;DHT22;32330;51.936;7.184;2023-09-30T05:53:49;11.20;99.90
46608;DHT22;32330;51.936;7.184;2023-09-30T05:56:18;11.20;99.90
46608;DHT22;32330;51.936;7.184;2023-09-30T05:58:48;11.20;99.90
46608;DHT22;32330;51.936;7.184;2023-09-30T06:01:15;11.20;99.90
46608;DHT22;32330;51.936;7.184;2023-09-30T06:03:49;11.20;99.90
46608;DHT22;32330;51.936;7.184;2023-09-30T06:06:26;11.30;99.90
46608;DHT22;32330;51.936;7.184;2023-09-30T06:08:54;11.30;99.90
46608;DHT22;32330;51.936;7.184;2023-09-30T06:11:24;11.20;99.90
46608;DHT22;32330;51.936;7.184;2023-09-30T06:13:57;11.30;99.90
46608;DHT22;32330;51.936;7.184;2023-09-30T06:16:25;11.20;99.90
46608;DHT22;32330;51.936;7.184;2023-09-30T06:18:53;11.30;99.90
46608;DHT22;32330;51.936;7.184;2023-09-30T06:21:21;11.30;99.90
46608;DHT22;32330;51.936;7.184;2023-09-30T06:23:48;11.30;99.90
46608;DHT22;32330;51.936;7.184;2023-09-30T06:29:11;11.50;99.90
46608;DHT22;32330;51.936;7.184;2023-09-30T06:31:38;11.50;99.90
46608;DHT22;32330;51.936;7.184;2023-09-30T06:34:10;11.60;99.90
46608;DHT22;32330;51.936;7.184;2023-09-30T06:36:43;11.60;99.90
46608;DHT22;32330;51.936;7.184;2023-09-30T06:39:26;11.70;99.90
46608;DHT22;32330;51.936;7.184;2023-09-30T06:42:13;11.80;99.90
46608;DHT22;32330;51.936;7.184;2023-09-30T06:44:44;11.90;99.90
46608;DHT22;32330;51.936;7.184;2023-09-30T06:47:12;11.90;99.90
46608;DHT22;32330;51.936;7.184;2023-09-30T06:49:57;12.00;99.90
46608;DHT22;32330;51.936;7.184;2023-09-30T06:52:24;12.10;99.90
46608;DHT22;32330;51.936;7.184;2023-09-30T06:56:05;12.20;99.90
46608;DHT22;32330;51.936;7.184;2023-09-30T06:58:59;12.30;99.90
46608;DHT22;32330;51.936;7.184;2023-09-30T07:01:24;12.50;99.90
46608;DHT22;32330;51.936;7.184;2023-09-30T07:03:51;12.60;99.90
46608;DHT22;32330;51.936;7.184;2023-09-30T07:06:25;12.70;99.90
46608;DHT22;32330;51.936;7.184;2023-09-30T07:08:54;12.80;99.90
46608;DHT22;32330;51.936;7.184;2023-09-30T07:11:29;12.90;99.90
46608;DHT22;32330;51.936;7.184;2023-09-30T07:14:01;13.00;99.90
46608;DHT22;32330;51.936;7.184;2023-09-30T07:19:57;13.20;99.90
46608;DHT22;32330;51.936;7.184;2023-09-30T07:25:56;13.50;99.90
46608;DHT22;32330;51.936;7.184;2023-09-30T07:28:24;13.50;99.90
46608;DHT22;32330;51.936;7.184;2023-09-30T07:30:52;13.50;99.90
46608;DHT22;32330;51.936;7.184;2023-09-30T07:33:23;13.60;99.90
46608;DHT22;32330;51.936;7.184;2023-09-30T07:41:44;13.90;99.90
46608;DHT22;32330;51.936;7.184;2023-09-30T07:44:11;14.00;99.90
46608;DHT22;32330;51.936;7.184;2023-09-30T07:46:38;14.00;99.90
46608;DHT22;32330;51.936;7.184;2023-09-30T07:49:30;14.20;99.90
46608;DHT22;32330;51.936;7.184;2023-09-30T07:51:58;14.30;99.90
46608;DHT22;32330;51.936;7.184;2023-09-30T07:54:25;14.40;99.90
46608;DHT22;32330;51.936;7.184;2023-09-30T07:56:53;14.50;99.90
46608;DHT22;32330;51.936;7.184;2023-09-30T07:59:21;14.60;99.90
46608;DHT22;32330;51.936;7.184;2023-09-30T08:02:13;14.70;99.90
46608;DHT22;32330;51.936;7.184;2023-09-30T08:04:40;14.80;99.90
46608;DHT22;32330;51.936;7.184;2023-09-30T08:07:08;14.90;99.90
46608;DHT22;32330;51.936;7.184;2023-09-30T08:09:35;15.00;99.90
46608;DHT22;32330;51.936;7.184;2023-09-30T08:12:05;15.10;99.90
46608;DHT22;32330;51.936;7.184;2023-09-30T08:14:32;15.20;99.90
46608;DHT22;32330;51.936;7.184;2023-09-30T08:16:59;15.30;99.90
46608;DHT22;32330;51.936;7.184;2023-09-30T08:19:30;15.40;98.00
46608;DHT22;32330;51.936;7.184;2023-09-30T08:22:22;15.40;92.40
46608;DHT22;32330;51.936;7.184;2023-09-30T08:24:53;15.60;92.40
46608;DHT22;32330;51.936;7.184;2023-09-30T08:30:50;15.90;88.10
46608;DHT22;32330;51.936;7.184;2023-09-30T08:33:20;16.10;95.00
46608;DHT22;32330;51.936;7.184;2023-09-30T08:35:47;16.30;96.50
46608;DHT22;32330;51.936;7.184;2023-09-30T08:38:14;16.50;99.90
46608;DHT22;32330;51.936;7.184;2023-09-30T08:40:41;16.70;99.90
46608;DHT22;32330;51.936;7.184;2023-09-30T08:43:11;16.70;99.90
46608;DHT22;32330;51.936;7.184;2023-09-30T08:45:39;16.70;99.90
46608;DHT22;32330;51.936;7.184;2023-09-30T08:48:43;16.70;99.90
46608;DHT22;32330;51.936;7.184;2023-09-30T08:51:10;16.80;99.90
46608;DHT22;32330;51.936;7.184;2023-09-30T08:53:37;16.90;99.90
46608;DHT22;32330;51.936;7.184;2023-09-30T08:56:05;17.00;99.90
46608;DHT22;32330;51.936;7.184;2023-09-30T08:58:36;17.10;99.90
46608;DHT22;32330;51.936;7.184;2023-09-30T09:01:04;17.30;99.90
46608;DHT22;32330;51.936;7.184;2023-09-30T09:03:34;17.30;99.90
46608;DHT22;32330;51.936;7.184;2023-09-30T09:06:03;17.20;99.90
46608;DHT22;32330;51.936;7.184;2023-09-30T09:08:30;17.40;99.90
46608;DHT22;32330;51.936;7.184;2023-09-30T09:10:59;17.50;99.90
46608;DHT22;32330;51.936;7.184;2023-09-30T09:13:45;17.60;99.90
46608;DHT22;32330;51.936;7.184;2023-09-30T09:16:15;17.80;99.90
46608;DHT22;32330;51.936;7.184;2023-09-30T09:18:43;17.80;99.90
46608;DHT22;32330;51.936;7.184;2023-09-30T09:21:15;17.90;99.90
46608;DHT22;32330;51.936;7.184;2023-09-30T09:23:43;17.90;99.90
46608;DHT22;32330;51.936;7.184;2023-09-30T09:26:11;18.00;99.90
46608;DHT22;32330;51.936;7.184;2023-09-30T09:29:04;18.10;99.90
46608;DHT22;32330;51.936;7.184;2023-09-30T09:31:33;18.10;99.90
46608;DHT22;32330;51.936;7.184;2023-09-30T09:34:01;18.20;99.90
46608;DHT22;32330;51.936;7.184;2023-09-30T09:36:40;18.40;99.90
46608;DHT22;32330;51.936;7.184;2023-09-30T09:39:07;18.60;99.90
46608;DHT22;32330;51.936;7.184;2023-09-30T09:41:49;18.70;99.90
46608;DHT22;32330;51.936;7.184;2023-09-30T09:44:19;18.80;99.90
46608;DHT22;32330;51.936;7.184;2023-09-30T09:46:52;18.90;99.90
46608;DHT22;32330;51.936;7.184;2023-09-30T09:49:21;19.20;99.90
46608;DHT22;32330;51.936;7.184;2023-09-30T09:51:59;19.20;99.90
46608;DHT22;32330;51.936;7.184;2023-09-30T09:56:08;19.10;99.90
46608;DHT22;32330;51.936;7.184;2023-09-30T09:57:52;19.30;99.90
46608;DHT22;32330;51.936;7.184;2023-09-30T10:00:27;19.30;99.90
46608;DHT22;32330;51.936;7.184;2023-09-30T10:02:59;19.30;99.90
46608;DHT22;32330;51.936;7.184;2023-09-30T10:05:26;19.00;99.90
46608;DHT22;32330;51.936;7.184;2023-09-30T10:51:27;20.30;99.90
46608;DHT22;32330;51.936;7.184;2023-09-30T10:54:02;20.70;99.90
46608;DHT22;32330;51.936;7.184;2023-09-30T10:56:32;20.60;99.90
46608;DHT22;32330;51.936;7.184;2023-09-30T10:59:00;20.60;99.90
46608;DHT22;32330;51.936;7.184;2023-09-30T11:01:32;20.50;99.90
46608;DHT22;32330;51.936;7.184;2023-09-30T11:04:02;20.40;99.90
46608;DHT22;32330;51.936;7.184;2023-09-30T11:06:32;20.40;99.90
46608;DHT22;32330;51.936;7.184;2023-09-30T11:18:12;20.90;99.90
46608;DHT22;32330;51.936;7.184;2023-09-30T11:21:39;20.40;99.90
46608;DHT22;32330;51.936;7.184;2023-09-30T11:24:07;20.40;99.90
46608;DHT22;32330;51.936;7.184;2023-09-30T11:26:35;20.50;99.90
46608;DHT22;32330;51.936;7.184;2023-09-30T11:29:05;20.80;99.90
46608;DHT22;32330;51.936;7.184;2023-09-30T11:31:33;20.60;99.90
46608;DHT22;32330;51.936;7.184;2023-09-30T11:34:01;20.40;99.90
46608;DHT22;32330;51.936;7.184;2023-09-30T11:36:30;20.30;99.90
46608;DHT22;32330;51.936;7.184;2023-09-30T11:38:58;20.40;99.90
46608;DHT22;32330;51.936;7.184;2023-09-30T11:41:33;20.30;99.90
46608;DHT22;32330;51.936;7.184;2023-09-30T11:44:02;20.40;99.90
46608;DHT22;32330;51.936;7.184;2023-09-30T11:46:47;20.60;99.90
46608;DHT22;32330;51.936;7.184;2023-09-30T11:49:25;20.60;99.90
46608;DHT22;32330;51.936;7.184;2023-09-30T11:51:53;20.60;99.90
46608;DHT22;32330;51.936;7.184;2023-09-30T11:54:22;20.40;99.90
46608;DHT22;32330;51.936;7.184;2023-09-30T11:56:49;20.30;99.90
46608;DHT22;32330;51.936;7.184;2023-09-30T11:59:17;20.20;99.90
46608;DHT22;32330;51.936;7.184;2023-09-30T12:01:48;20.20;99.90
46608;DHT22;32330;51.936;7.184;2023-09-30T12:04:15;20.40;99.90
46608;DHT22;32330;51.936;7.184;2023-09-30T12:06:45;20.80;99.90
46608;DHT22;32330;51.936;7.184;2023-09-30T12:09:12;20.90;99.90
46608;DHT22;32330;51.936;7.184;2023-09-30T12:11:42;20.90;99.90
46608;DHT22;32330;51.936;7.184;2023-09-30T12:14:10;21.40;99.90
46608;DHT22;32330;51.936;7.184;2023-09-30T12:16:38;21.40;99.90
46608;DHT22;32330;51.936;7.184;2023-09-30T12:19:05;20.70;99.90
46608;DHT22;32330;51.936;7.184;2023-09-30T12:21:33;20.50;99.90
46608;DHT22;32330;51.936;7.184;2023-09-30T12:24:00;20.30;99.90
46608;DHT22;32330;51.936;7.184;2023-09-30T12:26:27;20.40;99.90
46608;DHT22;32330;51.936;7.184;2023-09-30T12:28:56;20.30;99.90
46608;DHT22;32330;51.936;7.184;2023-09-30T12:31:23;20.20;99.90
46608;DHT22;32330;51.936;7.184;2023-09-30T12:33:49;20.40;99.90
46608;DHT22;32330;51.936;7.184;2023-09-30T12:36:17;20.70;99.90
46608;DHT22;32330;51.936;7.184;2023-09-30T12:38:44;20.90;99.90
46608;DHT22;32330;51.936;7.184;2023-09-30T12:41:11;21.20;99.90
46608;DHT22;32330;51.936;7.184;2023-09-30T12:43:38;21.30;99.90
46608;DHT22;32330;51.936;7.184;2023-09-30T12:46:09;21.30;99.90
46608;DHT22;32330;51.936;7.184;2023-09-30T12:48:36;21.10;99.90
46608;DHT22;32330;51.936;7.184;2023-09-30T12:51:04;21.00;99.90
46608;DHT22;32330;51.936;7.184;2023-09-30T12:53:32;20.90;99.90
46608;DHT22;32330;51.936;7.184;2023-09-30T12:55:59;20.90;99.90
46608;DHT22;32330;51.936;7.184;2023-09-30T12:58:26;21.00;99.90
46608;DHT22;32330;51.936;7.184;2023-09-30T13:00:54;21.10;99.90
46608;DHT22;32330;51.936;7.184;2023-09-30T13:03:23;21.10;99.90
46608;DHT22;32330;51.936;7.184;2023-09-30T13:05:50;21.30;99.90
46608;DHT22;32330;51.936;7.184;2023-09-30T13:08:17;21.20;99.90
46608;DHT22;32330;51.936;7.184;2023-09-30T13:10:45;20.90;99.90
46608;DHT22;32330;51.936;7.184;2023-09-30T13:13:13;20.90;99.90
46608;DHT22;32330;51.936;7.184;2023-09-30T13:15:40;20.80;99.90
46608;DHT22;32330;51.936;7.184;2023-09-30T13:18:07;20.60;99.90
46608;DHT22;32330;51.936;7.184;2023-09-30T13:20:35;20.40;99.90
46608;DHT22;32330;51.936;7.184;2023-09-30T13:23:03;20.50;99.90
46608;DHT22;32330;51.936;7.184;2023-09-30T13:25:30;20.60;99.80
46608;DHT22;32330;51.936;7.184;2023-09-30T13:27:57;20.60;99.50
46608;DHT22;32330;51.936;7.184;2023-09-30T13:30:23;20.60;99.60
46608;DHT22;32330;51.936;7.184;2023-09-30T13:32:50;20.70;99.90
46608;DHT22;32330;51.936;7.184;2023-09-30T13:35:17;21.00;99.90
46608;DHT22;32330;51.936;7.184;2023-09-30T13:37:46;21.10;99.50
46608;DHT22;32330;51.936;7.184;2023-09-30T13:40:13;21.20;99.50
46608;DHT22;32330;51.936;7.184;2023-09-30T13:42:40;21.20;99.90
46608;DHT22;32330;51.936;7.184;2023-09-30T13:45:09;21.40;99.90
46608;DHT22;32330;51.936;7.184;2023-09-30T13:47:37;21.50;98.10
46608;DHT22;32330;51.936;7.184;2023-09-30T13:50:05;21.50;97.90
46608;DHT22;32330;51.936;7.184;2023-09-30T13:52:33;21.50;98.70
46608;DHT22;32330;51.936;7.184;2023-09-30T13:55:01;21.40;99.40
46608;DHT22;32330;51.936;7.184;2023-09-30T13:57:30;21.40;99.40
46608;DHT22;32330;51.936;7.184;2023-09-30T13:59:57;21.20;99.20
46608;DHT22;32330;51.936;7.184;2023-09-30T14:02:25;21.10;99.70
46608;DHT22;32330;51.936;7.184;2023-09-30T14:04:52;20.90;99.60
46608;DHT22;32330;51.936;7.184;2023-09-30T14:07:51;20.90;99.80
46608;DHT22;32330;51.936;7.184;2023-09-30T14:10:21;21.00;99.20
46608;DHT22;32330;51.936;7.184;2023-09-30T14:12:48;21.00;99.70
46608;DHT22;32330;51.936;7.184;2023-09-30T14:15:15;21.30;99.90
46608;DHT22;32330;51.936;7.184;2023-09-30T14:17:42;21.60;99.70
46608;DHT22;32330;51.936;7.184;2023-09-30T14:20:11;21.70;99.40
46608;DHT22;32330;51.936;7.184;2023-09-30T14:22:38;21.80;98.70
46608;DHT22;32330;51.936;7.184;2023-09-30T14:25:06;21.90;99.20
46608;DHT22;32330;51.936;7.184;2023-09-30T14:27:35;22.00;98.10
46608;DHT22;32330;51.936;7.184;2023-09-30T14:30:02;21.80;97.40
46608;DHT22;32330;51.936;7.184;2023-09-30T14:32:30;21.60;97.10
46608;DHT22;32330;51.936;7.184;2023-09-30T14:34:57;21.70;97.40
46608;DHT22;32330;51.936;7.184;2023-09-30T14:37:24;21.40;97.60
46608;DHT22;32330;51.936;7.184;2023-09-30T14:39:51;21.00;98.00
46608;DHT22;32330;51.936;7.184;2023-09-30T14:42:18;20.80;98.40
46608;DHT22;32330;51.936;7.184;2023-09-30T14:44:46;20.60;99.10
46608;DHT22;32330;51.936;7.184;2023-09-30T14:47:13;20.60;99.30
46608;DHT22;32330;51.936;7.184;2023-09-30T14:49:40;20.80;99.60
46608;DHT22;32330;51.936;7.184;2023-09-30T14:52:07;21.10;99.70
46608;DHT22;32330;51.936;7.184;2023-09-30T14:54:35;21.20;99.00
46608;DHT22;32330;51.936;7.184;2023-09-30T14:57:03;21.30;99.10
46608;DHT22;32330;51.936;7.184;2023-09-30T14:59:32;21.50;99.30
46608;DHT22;32330;51.936;7.184;2023-09-30T15:02:01;21.70;99.60
46608;DHT22;32330;51.936;7.184;2023-09-30T15:04:28;21.80;98.90
46608;DHT22;32330;51.936;7.184;2023-09-30T15:06:54;21.70;97.80
46608;DHT22;32330;51.936;7.184;2023-09-30T15:09:21;21.40;98.20
46608;DHT22;32330;51.936;7.184;2023-09-30T15:11:48;21.40;98.40
46608;DHT22;32330;51.936;7.184;2023-09-30T15:14:15;21.20;97.80
46608;DHT22;32330;51.936;7.184;2023-09-30T15:16:42;21.10;98.30
46608;DHT22;32330;51.936;7.184;2023-09-30T15:19:10;21.00;98.60
46608;DHT22;32330;51.936;7.184;2023-09-30T15:21:38;20.90;98.40
46608;DHT22;32330;51.936;7.184;2023-09-30T15:24:05;20.70;98.20
46608;DHT22;32330;51.936;7.184;2023-09-30T15:26:32;20.60;98.30
46608;DHT22;32330;51.936;7.184;2023-09-30T15:29:00;20.60;98.30
46608;DHT22;32330;51.936;7.184;2023-09-30T15:31:28;20.60;98.60
46608;DHT22;32330;51.936;7.184;2023-09-30T15:33:55;20.60;98.80
46608;DHT22;32330;51.936;7.184;2023-09-30T15:36:24;20.50;99.10
46608;DHT22;32330;51.936;7.184;2023-09-30T15:38:51;20.60;99.30
46608;DHT22;32330;51.936;7.184;2023-09-30T15:41:20;20.60;99.90
46608;DHT22;32330;51.936;7.184;2023-09-30T15:43:49;20.50;99.50
46608;DHT22;32330;51.936;7.184;2023-09-30T15:46:16;20.40;99.60
46608;DHT22;32330;51.936;7.184;2023-09-30T15:48:43;20.30;99.90
46608;DHT22;32330;51.936;7.184;2023-09-30T15:51:10;20.30;99.90
46608;DHT22;32330;51.936;7.184;2023-09-30T15:53:38;20.10;99.90
46608;DHT22;32330;51.936;7.184;2023-09-30T15:56:05;20.10;99.90
46608;DHT22;32330;51.936;7.184;2023-09-30T15:58:32;20.10;99.90
46608;DHT22;32330;51.936;7.184;2023-09-30T16:00:59;20.10;99.90
46608;DHT22;32330;51.936;7.184;2023-09-30T16:03:27;19.90;99.90
46608;DHT22;32330;51.936;7.184;2023-09-30T16:05:53;19.90;99.90
46608;DHT22;32330;51.936;7.184;2023-09-30T16:08:21;19.90;99.90
46608;DHT22;32330;51.936;7.184;2023-09-30T16:10:49;19.80;99.90
46608;DHT22;32330;51.936;7.184;2023-09-30T16:13:21;19.80;99.90
46608;DHT22;32330;51.936;7.184;2023-09-30T16:15:48;19.70;99.90
46608;DHT22;32330;51.936;7.184;2023-09-30T16:18:15;19.70;99.90
46608;DHT22;32330;51.936;7.184;2023-09-30T16:20:42;19.50;99.90
46608;DHT22;32330;51.936;7.184;2023-09-30T16:23:09;19.40;99.90
46608;DHT22;32330;51.936;7.184;2023-09-30T16:25:36;19.40;99.90
46608;DHT22;32330;51.936;7.184;2023-09-30T16:28:04;19.40;99.90
46608;DHT22;32330;51.936;7.184;2023-09-30T16:30:31;19.20;99.90
46608;DHT22;32330;51.936;7.184;2023-09-30T16:32:58;19.10;99.90
46608;DHT22;32330;51.936;7.184;2023-09-30T16:35:25;19.10;99.90
46608;DHT22;32330;51.936;7.184;2023-09-30T16:37:52;19.00;99.90
46608;DHT22;32330;51.936;7.184;2023-09-30T16:40:19;18.90;99.90
46608;DHT22;32330;51.936;7.184;2023-09-30T16:42:50;18.80;99.90
46608;DHT22;32330;51.936;7.184;2023-09-30T16:49:31;18.70;99.90
46608;DHT22;32330;51.936;7.184;2023-09-30T16:51:58;18.60;99.90
46608;DHT22;32330;51.936;7.184;2023-09-30T16:54:26;18.60;99.90
46608;DHT22;32330;51.936;7.184;2023-09-30T16:56:53;18.50;99.90
46608;DHT22;32330;51.936;7.184;2023-09-30T16:59:23;18.40;99.90
46608;DHT22;32330;51.936;7.184;2023-09-30T17:01:54;18.30;99.90
46608;DHT22;32330;51.936;7.184;2023-09-30T17:04:21;18.30;99.90
46608;DHT22;32330;51.936;7.184;2023-09-30T17:06:49;18.20;99.90
46608;DHT22;32330;51.936;7.184;2023-09-30T17:09:37;18.10;99.90
46608;DHT22;32330;51.936;7.184;2023-09-30T17:12:48;18.00;99.90
46608;DHT22;32330;51.936;7.184;2023-09-30T17:15:16;17.90;99.90
46608;DHT22;32330;51.936;7.184;2023-09-30T17:17:54;17.80;99.90
46608;DHT22;32330;51.936;7.184;2023-09-30T17:20:27;17.70;99.90
46608;DHT22;32330;51.936;7.184;2023-09-30T17:23:09;17.70;99.90
46608;DHT22;32330;51.936;7.184;2023-09-30T17:25:37;17.60;99.90
46608;DHT22;32330;51.936;7.184;2023-09-30T17:28:08;17.50;99.90
46608;DHT22;32330;51.936;7.184;2023-09-30T17:30:36;17.50;99.90
46608;DHT22;32330;51.936;7.184;2023-09-30T17:33:04;17.40;99.90
46608;DHT22;32330;51.936;7.184;2023-09-30T17:35:36;17.30;99.90
46608;DHT22;32330;51.936;7.184;2023-09-30T17:38:04;17.30;99.90
46608;DHT22;32330;51.936;7.184;2023-09-30T17:40:33;17.20;99.90
46608;DHT22;32330;51.936;7.184;2023-09-30T17:43:00;17.20;99.90
46608;DHT22;32330;51.936;7.184;2023-09-30T17:45:27;17.10;99.90
46608;DHT22;32330;51.936;7.184;2023-09-30T17:47:57;17.10;99.90
46608;DHT22;32330;51.936;7.184;2023-09-30T17:50:24;17.10;99.90
46608;DHT22;32330;51.936;7.184;2023-09-30T17:52:51;17.00;99.90
46608;DHT22;32330;51.936;7.184;2023-09-30T17:55:18;16.90;99.90
46608;DHT22;32330;51.936;7.184;2023-09-30T17:57:49;16.90;99.90
46608;DHT22;32330;51.936;7.184;2023-09-30T18:00:18;16.80;99.90
46608;DHT22;32330;51.936;7.184;2023-09-30T18:02:44;16.70;99.90
46608;DHT22;32330;51.936;7.184;2023-09-30T18:05:11;16.70;99.90
46608;DHT22;32330;51.936;7.184;2023-09-30T18:07:38;16.60;99.90
46608;DHT22;32330;51.936;7.184;2023-09-30T18:10:06;16.60;99.90
46608;DHT22;32330;51.936;7.184;2023-09-30T18:12:34;16.50;99.90
46608;DHT22;32330;51.936;7.184;2023-09-30T18:15:02;16.50;99.90
46608;DHT22;32330;51.936;7.184;2023-09-30T18:17:30;16.40;99.90
46608;DHT22;32330;51.936;7.184;2023-09-30T18:30:37;16.20;99.90
46608;DHT22;32330;51.936;7.184;2023-09-30T18:33:07;16.10;99.90
46608;DHT22;32330;51.936;7.184;2023-09-30T18:35:36;16.00;99.90
46608;DHT22;32330;51.936;7.184;2023-09-30T18:38:03;16.10;99.90
46608;DHT22;32330;51.936;7.184;2023-09-30T18:40:30;16.00;99.90
46608;DHT22;32330;51.936;7.184;2023-09-30T18:42:57;15.90;99.90
46608;DHT22;32330;51.936;7.184;2023-09-30T18:45:24;15.90;99.90
46608;DHT22;32330;51.936;7.184;2023-09-30T18:47:54;15.80;99.90
46608;DHT22;32330;51.936;7.184;2023-09-30T18:50:22;15.80;99.90
46608;DHT22;32330;51.936;7.184;2023-09-30T18:52:49;15.70;99.90
46608;DHT22;32330;51.936;7.184;2023-09-30T18:55:16;15.60;99.90
46608;DHT22;32330;51.936;7.184;2023-09-30T18:57:43;15.60;99.90
46608;DHT22;32330;51.936;7.184;2023-09-30T19:00:11;15.60;99.90
46608;DHT22;32330;51.936;7.184;2023-09-30T19:02:38;15.50;99.90
46608;DHT22;32330;51.936;7.184;2023-09-30T19:05:08;15.50;99.90
46608;DHT22;32330;51.936;7.184;2023-09-30T19:07:35;15.50;99.90
46608;DHT22;32330;51.936;7.184;2023-09-30T19:10:02;15.40;99.90
46608;DHT22;32330;51.936;7.184;2023-09-30T19:12:29;15.40;99.90
46608;DHT22;32330;51.936;7.184;2023-09-30T19:14:56;15.40;99.90
46608;DHT22;32330;51.936;7.184;2023-09-30T19:17:23;15.40;99.90
46608;DHT22;32330;51.936;7.184;2023-09-30T19:19:50;15.40;99.90
46608;DHT22;32330;51.936;7.184;2023-09-30T19:22:18;15.40;99.90
46608;DHT22;32330;51.936;7.184;2023-09-30T19:24:45;15.40;99.90
46608;DHT22;32330;51.936;7.184;2023-09-30T19:27:13;15.40;99.90
46608;DHT22;32330;51.936;7.184;2023-09-30T19:29:40;15.40;99.90
46608;DHT22;32330;51.936;7.184;2023-09-30T19:32:07;15.40;99.90
46608;DHT22;32330;51.936;7.184;2023-09-30T19:34:35;15.40;99.90
46608;DHT22;32330;51.936;7.184;2023-09-30T19:37:02;15.40;99.90
46608;DHT22;32330;51.936;7.184;2023-09-30T19:39:31;15.40;99.90
46608;DHT22;32330;51.936;7.184;2023-09-30T19:41:58;15.40;99.90
46608;DHT22;32330;51.936;7.184;2023-09-30T19:44:25;15.40;99.90
46608;DHT22;32330;51.936;7.184;2023-09-30T19:46:52;15.40;99.90
46608;DHT22;32330;51.936;7.184;2023-09-30T19:49:19;15.40;99.90
46608;DHT22;32330;51.936;7.184;2023-09-30T19:51:47;15.40;99.90
46608;DHT22;32330;51.936;7.184;2023-09-30T19:54:14;15.40;99.90
46608;DHT22;32330;51.936;7.184;2023-09-30T19:56:42;15.40;99.90
46608;DHT22;32330;51.936;7.184;2023-09-30T19:59:09;15.40;99.90
46608;DHT22;32330;51.936;7.184;2023-09-30T20:01:36;15.30;99.90
46608;DHT22;32330;51.936;7.184;2023-09-30T20:04:05;15.30;99.90
46608;DHT22;32330;51.936;7.184;2023-09-30T20:06:32;15.30;99.90
46608;DHT22;32330;51.936;7.184;2023-09-30T20:08:59;15.30;99.90
46608;DHT22;32330;51.936;7.184;2023-09-30T20:11:26;15.30;99.90
46608;DHT22;32330;51.936;7.184;2023-09-30T20:13:56;15.20;99.90
46608;DHT22;32330;51.936;7.184;2023-09-30T20:16:23;15.20;99.90
46608;DHT22;32330;51.936;7.184;2023-09-30T20:18:51;15.20;99.90
46608;DHT22;32330;51.936;7.184;2023-09-30T20:21:17;15.20;99.90
46608;DHT22;32330;51.936;7.184;2023-09-30T20:23:46;15.20;99.90
46608;DHT22;32330;51.936;7.184;2023-09-30T20:26:15;15.10;99.90
46608;DHT22;32330;51.936;7.184;2023-09-30T20:28:47;15.20;99.90
46608;DHT22;32330;51.936;7.184;2023-09-30T20:31:16;15.20;99.90
46608;DHT22;32330;51.936;7.184;2023-09-30T20:33:44;15.10;99.90
46608;DHT22;32330;51.936;7.184;2023-09-30T20:36:11;15.20;99.90
46608;DHT22;32330;51.936;7.184;2023-09-30T20:38:38;15.10;99.90
46608;DHT22;32330;51.936;7.184;2023-09-30T20:41:06;15.20;99.90
46608;DHT22;32330;51.936;7.184;2023-09-30T20:43:35;15.10;99.90
46608;DHT22;32330;51.936;7.184;2023-09-30T20:46:03;15.20;99.90
46608;DHT22;32330;51.936;7.184;2023-09-30T20:48:32;15.10;99.90
46608;DHT22;32330;51.936;7.184;2023-09-30T20:51:02;15.20;99.90
46608;DHT22;32330;51.936;7.184;2023-09-30T20:53:29;15.10;99.90
46608;DHT22;32330;51.936;7.184;2023-09-30T20:55:58;15.10;99.90
46608;DHT22;32330;51.936;7.184;2023-09-30T20:58:25;15.00;99.90
46608;DHT22;32330;51.936;7.184;2023-09-30T21:00:55;15.10;99.90
46608;DHT22;32330;51.936;7.184;2023-09-30T21:03:50;15.00;99.90
46608;DHT22;32330;51.936;7.184;2023-09-30T21:06:17;15.00;99.90
46608;DHT22;32330;51.936;7.184;2023-09-30T21:08:46;14.90;99.90